sensor_id;sensor_type;location;lat;lon;timestamp;pressure;altitude;pressure_sealevel;temperature;humidity
29239;BME280;16267;48.194;11.546;2023-04-04T00:02:12;96631.38;;;1.88;54.46
29239;BME280;16267;48.194;11.546;2023-04-04T00:04:37;96636.69;;;1.88;55.12
29239;BME280;16267;48.194;11.546;2023-04-04T00:07:03;96635.78;;;1.84;54.95
29239;BME280;16267;48.194;11.546;2023-04-04T00:09:29;96625.97;;;1.84;54.86
29239;BME280;16267;48.194;11.546;2023-04-04T00:11:55;96625.31;;;1.87;54.94
29239;BME280;16267;48.194;11.546;2023-04-04T00:14:21;96627.84;;;1.84;54.36
29239;BME280;16267;48.194;11.546;2023-04-04T00:16:47;96627.50;;;1.85;54.71
29239;BME280;16267;48.194;11.546;2023-04-04T00:19:12;96629.41;;;1.85;54.98
29239;BME280;16267;48.194;11.546;2023-04-04T00:21:43;96623.00;;;1.86;54.60
29239;BME280;16267;48.194;11.546;2023-04-04T00:24:12;96619.25;;;1.87;54.91
29239;BME280;16267;48.194;11.546;2023-04-04T00:26:38;96609.00;;;1.85;55.06
29239;BME280;16267;48.194;11.546;2023-04-04T00:29:03;96606.34;;;1.85;54.84
29239;BME280;16267;48.194;11.546;2023-04-04T00:31:29;96610.56;;;1.86;55.24
29239;BME280;16267;48.194;11.546;2023-04-04T00:33:55;96604.47;;;1.86;55.27
29239;BME280;16267;48.194;11.546;2023-04-04T00:36:21;96610.88;;;1.85;55.08
29239;BME280;16267;48.194;11.546;2023-04-04T00:38:46;96597.97;;;1.83;54.98
29239;BME280;16267;48.194;11.546;2023-04-04T00:41:12;96601.38;;;1.84;54.94
29239;BME280;16267;48.194;11.546;2023-04-04T00:43:38;96597.97;;;1.83;55.18
29239;BME280;16267;48.194;11.546;2023-04-04T00:46:04;96595.19;;;1.79;55.14
29239;BME280;16267;48.194;11.546;2023-04-04T00:48:32;96583.06;;;1.78;55.29
29239;BME280;16267;48.194;11.546;2023-04-04T00:50:59;96587.91;;;1.76;55.26
29239;BME280;16267;48.194;11.546;2023-04-04T00:53:24;96593.84;;;1.73;55.28
29239;BME280;16267;48.194;11.546;2023-04-04T00:55:50;96588.91;;;1.72;55.26
29239;BME280;16267;48.194;11.546;2023-04-04T00:58:16;96584.69;;;1.71;55.54
29239;BME280;16267;48.194;11.546;2023-04-04T01:00:43;96592.19;;;1.69;55.17
29239;BME280;16267;48.194;11.546;2023-04-04T01:03:10;96587.13;;;1.64;55.34
29239;BME280;16267;48.194;11.546;2023-04-04T01:05:37;96594.16;;;1.60;55.13
29239;BME280;16267;48.194;11.546;2023-04-04T01:08:04;96582.78;;;1.59;55.77
29239;BME280;16267;48.194;11.546;2023-04-04T01:10:32;96587.31;;;1.59;55.38
29239;BME280;16267;48.194;11.546;2023-04-04T01:12:59;96588.41;;;1.58;55.43
29239;BME280;16267;48.194;11.546;2023-04-04T01:15:25;96583.44;;;1.56;55.83
29239;BME280;16267;48.194;11.546;2023-04-04T01:17:57;96580.34;;;1.54;55.84
29239;BME280;16267;48.194;11.546;2023-04-04T01:20:25;96580.69;;;1.52;55.83
29239;BME280;16267;48.194;11.546;2023-04-04T01:22:54;96582.53;;;1.52;55.57
29239;BME280;16267;48.194;11.546;2023-04-04T01:25:30;96579.13;;;1.51;55.96
29239;BME280;16267;48.194;11.546;2023-04-04T01:27:59;96573.06;;;1.51;55.99
29239;BME280;16267;48.194;11.546;2023-04-04T01:30:32;96572.63;;;1.49;55.83
29239;BME280;16267;48.194;11.546;2023-04-04T01:33:18;96569.19;;;1.48;55.98
29239;BME280;16267;48.194;11.546;2023-04-04T01:36:25;96567.31;;;1.49;56.47
29239;BME280;16267;48.194;11.546;2023-04-04T01:39:14;96562.38;;;1.47;55.94
29239;BME280;16267;48.194;11.546;2023-04-04T01:41:44;96555.97;;;1.48;56.41
29239;BME280;16267;48.194;11.546;2023-04-04T01:44:12;96555.22;;;1.48;56.37
29239;BME280;16267;48.194;11.546;2023-04-04T01:46:40;96554.28;;;1.44;56.12
29239;BME280;16267;48.194;11.546;2023-04-04T01:49:06;96556.94;;;1.44;56.58
29239;BME280;16267;48.194;11.546;2023-04-04T01:51:32;96562.22;;;1.44;56.50
29239;BME280;16267;48.194;11.546;2023-04-04T01:53:58;96552.75;;;1.43;56.08
29239;BME280;16267;48.194;11.546;2023-04-04T01:56:24;96555.72;;;1.41;56.15
29239;BME280;16267;48.194;11.546;2023-04-04T01:58:49;96562.88;;;1.41;56.41
29239;BME280;16267;48.194;11.546;2023-04-04T02:01:16;96557.94;;;1.39;56.18
29239;BME280;16267;48.194;11.546;2023-04-04T02:03:42;96560.91;;;1.38;56.58
29239;BME280;16267;48.194;11.546;2023-04-04T02:06:08;96558.59;;;1.36;56.45
29239;BME280;16267;48.194;11.546;2023-04-04T02:08:33;96552.19;;;1.37;56.63
29239;BME280;16267;48.194;11.546;2023-04-04T02:10:59;96563.09;;;1.36;56.86
29239;BME280;16267;48.194;11.546;2023-04-04T02:13:25;96556.56;;;1.33;56.60
29239;BME280;16267;48.194;11.546;2023-04-04T02:15:51;96557.69;;;1.32;56.86
29239;BME280;16267;48.194;11.546;2023-04-04T02:18:17;96555.03;;;1.32;56.96
29239;BME280;16267;48.194;11.546;2023-04-04T02:20:43;96548.53;;;1.29;56.99
29239;BME280;16267;48.194;11.546;2023-04-04T02:23:09;96557.56;;;1.28;56.71
29239;BME280;16267;48.194;11.546;2023-04-04T02:25:36;96545.78;;;1.26;56.34
29239;BME280;16267;48.194;11.546;2023-04-04T02:28:02;96548.72;;;1.24;56.92
29239;BME280;16267;48.194;11.546;2023-04-04T02:30:28;96547.50;;;1.22;56.85
29239;BME280;16267;48.194;11.546;2023-04-04T02:32:57;96541.03;;;1.19;56.65
29239;BME280;16267;48.194;11.546;2023-04-04T02:35:24;96542.88;;;1.19;57.05
29239;BME280;16267;48.194;11.546;2023-04-04T02:37:50;96545.84;;;1.17;57.14
29239;BME280;16267;48.194;11.546;2023-04-04T02:40:16;96546.16;;;1.16;56.81
29239;BME280;16267;48.194;11.546;2023-04-04T02:42:43;96545.94;;;1.08;56.29
29239;BME280;16267;48.194;11.546;2023-04-04T02:45:10;96545.13;;;1.08;56.93
29239;BME280;16267;48.194;11.546;2023-04-04T02:47:36;96540.06;;;1.03;57.31
29239;BME280;16267;48.194;11.546;2023-04-04T02:50:02;96541.91;;;1.02;57.10
29239;BME280;16267;48.194;11.546;2023-04-04T02:52:28;96538.84;;;1.00;57.07
29239;BME280;16267;48.194;11.546;2023-04-04T02:54:54;96540.25;;;0.98;57.15
29239;BME280;16267;48.194;11.546;2023-04-04T02:57:19;96537.94;;;0.96;57.05
29239;BME280;16267;48.194;11.546;2023-04-04T02:59:45;96536.38;;;0.95;56.99
29239;BME280;16267;48.194;11.546;2023-04-04T03:02:12;96536.69;;;0.94;57.23
29239;BME280;16267;48.194;11.546;2023-04-04T03:04:37;96537.22;;;0.87;57.13
29239;BME280;16267;48.194;11.546;2023-04-04T03:07:03;96538.00;;;0.87;57.20
29239;BME280;16267;48.194;11.546;2023-04-04T03:09:29;96534.13;;;0.85;57.26
29239;BME280;16267;48.194;11.546;2023-04-04T03:11:55;96538.19;;;0.82;57.27
29239;BME280;16267;48.194;11.546;2023-04-04T03:14:21;96534.66;;;0.78;57.46
29239;BME280;16267;48.194;11.546;2023-04-04T03:16:47;96535.31;;;0.75;57.18
29239;BME280;16267;48.194;11.546;2023-04-04T03:19:14;96531.88;;;0.75;57.27
29239;BME280;16267;48.194;11.546;2023-04-04T03:21:40;96532.97;;;0.74;57.44
29239;BME280;16267;48.194;11.546;2023-04-04T03:24:06;96530.97;;;0.71;57.41
29239;BME280;16267;48.194;11.546;2023-04-04T03:26:32;96532.09;;;0.70;57.22
29239;BME280;16267;48.194;11.546;2023-04-04T03:28:58;96535.81;;;0.69;57.50
29239;BME280;16267;48.194;11.546;2023-04-04T03:31:24;96527.63;;;0.61;57.60
29239;BME280;16267;48.194;11.546;2023-04-04T03:33:50;96531.34;;;0.60;57.66
29239;BME280;16267;48.194;11.546;2023-04-04T03:36:16;96535.41;;;0.58;57.74
29239;BME280;16267;48.194;11.546;2023-04-04T03:38:42;96533.88;;;0.57;57.69
29239;BME280;16267;48.194;11.546;2023-04-04T03:41:07;96539.16;;;0.57;57.55
29239;BME280;16267;48.194;11.546;2023-04-04T03:43:33;96532.66;;;0.54;57.69
29239;BME280;16267;48.194;11.546;2023-04-04T03:46:01;96544.31;;;0.53;57.63
29239;BME280;16267;48.194;11.546;2023-04-04T03:48:28;96540.75;;;0.49;57.80
29239;BME280;16267;48.194;11.546;2023-04-04T03:50:56;96535.00;;;0.47;58.05
29239;BME280;16267;48.194;11.546;2023-04-04T03:53:23;96548.84;;;0.44;57.93
29239;BME280;16267;48.194;11.546;2023-04-04T03:55:49;96543.16;;;0.42;57.90
29239;BME280;16267;48.194;11.546;2023-04-04T03:58:15;96549.06;;;0.39;57.99
29239;BME280;16267;48.194;11.546;2023-04-04T04:00:41;96547.84;;;0.36;58.47
29239;BME280;16267;48.194;11.546;2023-04-04T04:03:07;96555.31;;;0.34;58.15
29239;BME280;16267;48.194;11.546;2023-04-04T04:05:32;96551.44;;;0.32;58.11
29239;BME280;16267;48.194;11.546;2023-04-04T04:08:01;96549.09;;;0.30;58.26
29239;BME280;16267;48.194;11.546;2023-04-04T04:10:27;96548.31;;;0.30;58.38
29239;BME280;16267;48.194;11.546;2023-04-04T04:12:53;96555.34;;;0.26;58.70
29239;BME280;16267;48.194;11.546;2023-04-04T04:15:19;96554.88;;;0.24;58.45
29239;BME280;16267;48.194;11.546;2023-04-04T04:17:44;96558.63;;;0.22;58.63
29239;BME280;16267;48.194;11.546;2023-04-04T04:20:11;96557.84;;;0.22;57.97
29239;BME280;16267;48.194;11.546;2023-04-04T04:22:36;96560.34;;;0.18;58.76
29239;BME280;16267;48.194;11.546;2023-04-04T04:25:03;96561.28;;;0.14;58.63
29239;BME280;16267;48.194;11.546;2023-04-04T04:27:28;96560.84;;;0.12;58.92
29239;BME280;16267;48.194;11.546;2023-04-04T04:29:55;96556.22;;;0.09;58.82
29239;BME280;16267;48.194;11.546;2023-04-04T04:32:21;96560.69;;;0.08;58.67
29239;BME280;16267;48.194;11.546;2023-04-04T04:34:47;96563.66;;;0.07;58.88
29239;BME280;16267;48.194;11.546;2023-04-04T04:37:13;96569.59;;;0.04;58.94
29239;BME280;16267;48.194;11.546;2023-04-04T04:39:44;96565.38;;;0.03;58.65
29239;BME280;16267;48.194;11.546;2023-04-04T04:42:11;96566.81;;;0.00;58.86
29239;BME280;16267;48.194;11.546;2023-04-04T04:44:37;96564.78;;;-0.03;59.11
29239;BME280;16267;48.194;11.546;2023-04-04T04:47:03;96567.75;;;-0.05;59.07
29239;BME280;16267;48.194;11.546;2023-04-04T04:49:28;96562.47;;;-0.05;59.06
29239;BME280;16267;48.194;11.546;2023-04-04T04:51:54;96562.34;;;-0.08;59.35
29239;BME280;16267;48.194;11.546;2023-04-04T04:54:20;96558.25;;;-0.06;59.06
29239;BME280;16267;48.194;11.546;2023-04-04T04:56:46;96563.09;;;-0.08;59.38
29239;BME280;16267;48.194;11.546;2023-04-04T04:59:12;96563.88;;;-0.07;59.11
29239;BME280;16267;48.194;11.546;2023-04-04T05:01:42;96566.38;;;-0.11;58.94
29239;BME280;16267;48.194;11.546;2023-04-04T05:04:09;96571.66;;;-0.11;59.27
29239;BME280;16267;48.194;11.546;2023-04-04T05:06:35;96575.06;;;-0.10;59.36
29239;BME280;16267;48.194;11.546;2023-04-04T05:09:03;96567.16;;;-0.10;59.19
29239;BME280;16267;48.194;11.546;2023-04-04T05:11:29;96574.72;;;-0.09;59.05
29239;BME280;16267;48.194;11.546;2023-04-04T05:13:55;96570.84;;;-0.11;58.75
29239;BME280;16267;48.194;11.546;2023-04-04T05:16:21;96570.25;;;-0.08;59.19
29239;BME280;16267;48.194;11.546;2023-04-04T05:18:48;96578.16;;;-0.08;59.21
29239;BME280;16267;48.194;11.546;2023-04-04T05:21:14;96580.00;;;-0.09;59.27
29239;BME280;16267;48.194;11.546;2023-04-04T05:23:41;96579.72;;;-0.07;59.90
29239;BME280;16267;48.194;11.546;2023-04-04T05:26:06;96586.22;;;-0.05;59.82
29239;BME280;16267;48.194;11.546;2023-04-04T05:28:32;96580.47;;;-0.07;59.62
29239;BME280;16267;48.194;11.546;2023-04-04T05:30:59;96579.84;;;-0.04;59.51
29239;BME280;16267;48.194;11.546;2023-04-04T05:33:24;96590.09;;;-0.02;59.38
29239;BME280;16267;48.194;11.546;2023-04-04T05:35:50;96593.19;;;0.00;59.47
29239;BME280;16267;48.194;11.546;2023-04-04T05:38:16;96595.84;;;0.00;59.39
29239;BME280;16267;48.194;11.546;2023-04-04T05:40:42;96598.47;;;0.00;59.57
29239;BME280;16267;48.194;11.546;2023-04-04T05:43:09;96588.34;;;0.02;59.53
29239;BME280;16267;48.194;11.546;2023-04-04T05:45:35;96599.06;;;0.06;59.42
29239;BME280;16267;48.194;11.546;2023-04-04T05:48:01;96588.19;;;0.07;59.75
29239;BME280;16267;48.194;11.546;2023-04-04T05:50:27;96587.88;;;0.09;59.81
29239;BME280;16267;48.194;11.546;2023-04-04T05:52:56;96593.94;;;0.09;59.68
29239;BME280;16267;48.194;11.546;2023-04-04T05:55:22;96590.81;;;0.07;59.49
29239;BME280;16267;48.194;11.546;2023-04-04T05:57:49;96591.75;;;0.11;59.82
29239;BME280;16267;48.194;11.546;2023-04-04T06:00:17;96591.13;;;0.14;59.67
29239;BME280;16267;48.194;11.546;2023-04-04T06:02:43;96594.69;;;0.10;59.48
29239;BME280;16267;48.194;11.546;2023-04-04T06:05:10;96588.63;;;0.18;60.02
29239;BME280;16267;48.194;11.546;2023-04-04T06:07:36;96589.50;;;0.22;60.12
29239;BME280;16267;48.194;11.546;2023-04-04T06:10:04;96589.06;;;0.20;59.88
29239;BME280;16267;48.194;11.546;2023-04-04T06:12:30;96594.50;;;0.24;59.93
29239;BME280;16267;48.194;11.546;2023-04-04T06:14:55;96592.16;;;0.22;60.48
29239;BME280;16267;48.194;11.546;2023-04-04T06:17:21;96592.75;;;0.28;60.16
29239;BME280;16267;48.194;11.546;2023-04-04T06:19:48;96592.16;;;0.22;59.53
29239;BME280;16267;48.194;11.546;2023-04-04T06:22:13;96588.25;;;0.28;60.05
29239;BME280;16267;48.194;11.546;2023-04-04T06:24:42;96592.72;;;0.36;59.78
29239;BME280;16267;48.194;11.546;2023-04-04T06:27:07;96587.53;;;0.49;60.18
29239;BME280;16267;48.194;11.546;2023-04-04T06:29:33;96590.88;;;0.58;59.74
29239;BME280;16267;48.194;11.546;2023-04-04T06:31:59;96590.81;;;0.75;59.36
29239;BME280;16267;48.194;11.546;2023-04-04T06:34:25;96580.56;;;0.95;59.16
29239;BME280;16267;48.194;11.546;2023-04-04T06:36:51;96587.13;;;1.09;57.99
29239;BME280;16267;48.194;11.546;2023-04-04T06:39:17;96597.88;;;1.25;58.05
29239;BME280;16267;48.194;11.546;2023-04-04T06:41:42;96586.47;;;1.33;57.03
29239;BME280;16267;48.194;11.546;2023-04-04T06:44:08;96588.56;;;1.40;55.77
29239;BME280;16267;48.194;11.546;2023-04-04T06:46:36;96584.81;;;1.41;54.84
29239;BME280;16267;48.194;11.546;2023-04-04T06:49:02;96582.13;;;1.50;56.05
29239;BME280;16267;48.194;11.546;2023-04-04T06:51:28;96585.25;;;1.64;55.63
29239;BME280;16267;48.194;11.546;2023-04-04T06:53:55;96573.78;;;1.72;55.43
29239;BME280;16267;48.194;11.546;2023-04-04T06:56:22;96575.69;;;1.84;55.19
29239;BME280;16267;48.194;11.546;2023-04-04T06:58:48;96575.22;;;1.82;53.41
29239;BME280;16267;48.194;11.546;2023-04-04T07:01:14;96577.56;;;1.96;54.83
29239;BME280;16267;48.194;11.546;2023-04-04T07:03:39;96574.47;;;1.94;52.66
29239;BME280;16267;48.194;11.546;2023-04-04T07:06:05;96575.94;;;2.04;53.34
29239;BME280;16267;48.194;11.546;2023-04-04T07:08:31;96568.44;;;2.18;54.09
29239;BME280;16267;48.194;11.546;2023-04-04T07:10:58;96574.28;;;2.23;53.08
29239;BME280;16267;48.194;11.546;2023-04-04T07:13:24;96577.59;;;2.08;51.41
29239;BME280;16267;48.194;11.546;2023-04-04T07:15:51;96569.75;;;2.24;52.26
29239;BME280;16267;48.194;11.546;2023-04-04T07:18:17;96571.31;;;2.37;52.71
29239;BME280;16267;48.194;11.546;2023-04-04T07:20:45;96572.06;;;2.38;51.58
29239;BME280;16267;48.194;11.546;2023-04-04T07:23:12;96572.31;;;2.45;51.20
29239;BME280;16267;48.194;11.546;2023-04-04T07:25:38;96570.84;;;2.35;50.47
29239;BME280;16267;48.194;11.546;2023-04-04T07:28:04;96564.91;;;2.51;51.17
29239;BME280;16267;48.194;11.546;2023-04-04T07:30:30;96563.13;;;2.67;50.87
29239;BME280;16267;48.194;11.546;2023-04-04T07:33:01;96569.28;;;2.71;49.41
29239;BME280;16267;48.194;11.546;2023-04-04T07:35:27;96573.81;;;2.83;49.25
29239;BME280;16267;48.194;11.546;2023-04-04T07:37:53;96576.56;;;2.86;48.74
29239;BME280;16267;48.194;11.546;2023-04-04T07:40:20;96565.59;;;3.00;50.01
29239;BME280;16267;48.194;11.546;2023-04-04T07:42:47;96569.31;;;3.11;48.63
29239;BME280;16267;48.194;11.546;2023-04-04T07:45:16;96564.97;;;3.19;47.33
29239;BME280;16267;48.194;11.546;2023-04-04T07:47:45;96567.28;;;3.21;47.18
29239;BME280;16267;48.194;11.546;2023-04-04T07:50:12;96569.75;;;3.42;48.22
29239;BME280;16267;48.194;11.546;2023-04-04T07:52:39;96578.31;;;3.51;46.91
29239;BME280;16267;48.194;11.546;2023-04-04T07:55:06;96566.69;;;3.55;46.98
29239;BME280;16267;48.194;11.546;2023-04-04T07:57:39;96571.88;;;3.52;46.66
29239;BME280;16267;48.194;11.546;2023-04-04T08:00:08;96574.97;;;3.54;47.06
29239;BME280;16267;48.194;11.546;2023-04-04T08:02:36;96567.91;;;3.74;45.97
29239;BME280;16267;48.194;11.546;2023-04-04T08:05:02;96563.63;;;3.85;45.76
29239;BME280;16267;48.194;11.546;2023-04-04T08:07:28;96566.66;;;3.84;45.09
29239;BME280;16267;48.194;11.546;2023-04-04T08:09:54;96560.47;;;3.95;46.32
29239;BME280;16267;48.194;11.546;2023-04-04T08:12:20;96562.44;;;4.14;46.42
29239;BME280;16267;48.194;11.546;2023-04-04T08:14:45;96556.69;;;4.28;45.70
29239;BME280;16267;48.194;11.546;2023-04-04T08:17:12;96561.00;;;4.33;44.27
29239;BME280;16267;48.194;11.546;2023-04-04T08:19:39;96559.09;;;4.49;44.59
29239;BME280;16267;48.194;11.546;2023-04-04T08:22:04;96563.59;;;4.64;44.45
29239;BME280;16267;48.194;11.546;2023-04-04T08:24:30;96566.75;;;4.70;42.59
29239;BME280;16267;48.194;11.546;2023-04-04T08:26:56;96564.81;;;4.86;43.45
29239;BME280;16267;48.194;11.546;2023-04-04T08:29:22;96564.75;;;4.83;43.34
29239;BME280;16267;48.194;11.546;2023-04-04T08:31:47;96559.09;;;4.49;42.00
29239;BME280;16267;48.194;11.546;2023-04-04T08:34:13;96557.88;;;4.82;43.43
29239;BME280;16267;48.194;11.546;2023-04-04T08:36:39;96572.09;;;4.89;42.22
29239;BME280;16267;48.194;11.546;2023-04-04T08:39:05;96567.34;;;4.99;41.95
29239;BME280;16267;48.194;11.546;2023-04-04T08:41:31;96564.06;;;5.05;41.56
29239;BME280;16267;48.194;11.546;2023-04-04T08:44:01;96566.72;;;5.25;41.66
29239;BME280;16267;48.194;11.546;2023-04-04T08:46:29;96559.88;;;5.24;39.75
29239;BME280;16267;48.194;11.546;2023-04-04T08:48:55;96564.13;;;5.09;39.71
29239;BME280;16267;48.194;11.546;2023-04-04T08:51:24;96572.53;;;5.11;40.88
29239;BME280;16267;48.194;11.546;2023-04-04T08:53:51;96562.94;;;5.06;40.33
29239;BME280;16267;48.194;11.546;2023-04-04T08:56:18;96571.69;;;5.07;40.47
29239;BME280;16267;48.194;11.546;2023-04-04T08:58:44;96568.69;;;5.08;39.28
29239;BME280;16267;48.194;11.546;2023-04-04T09:01:11;96572.38;;;5.04;40.08
29239;BME280;16267;48.194;11.546;2023-04-04T09:03:37;96571.13;;;4.98;40.07
29239;BME280;16267;48.194;11.546;2023-04-04T09:06:03;96573.03;;;4.97;39.87
29239;BME280;16267;48.194;11.546;2023-04-04T09:08:29;96561.75;;;5.04;40.71
29239;BME280;16267;48.194;11.546;2023-04-04T09:10:56;96569.47;;;5.09;41.02
29239;BME280;16267;48.194;11.546;2023-04-04T09:13:22;96574.75;;;4.89;38.25
29239;BME280;16267;48.194;11.546;2023-04-04T09:15:52;96570.13;;;4.86;39.33
29239;BME280;16267;48.194;11.546;2023-04-04T09:18:22;96568.84;;;4.96;39.85
29239;BME280;16267;48.194;11.546;2023-04-04T09:20:48;96575.28;;;4.79;37.85
29239;BME280;16267;48.194;11.546;2023-04-04T09:23:17;96571.00;;;4.90;39.66
29239;BME280;16267;48.194;11.546;2023-04-04T09:25:54;96575.03;;;5.04;39.59
29239;BME280;16267;48.194;11.546;2023-04-04T09:28:22;96573.16;;;5.04;39.50
29239;BME280;16267;48.194;11.546;2023-04-04T09:30:49;96583.88;;;5.08;39.28
29239;BME280;16267;48.194;11.546;2023-04-04T09:33:18;96579.75;;;5.10;39.18
29239;BME280;16267;48.194;11.546;2023-04-04T09:36:03;96580.72;;;4.83;37.95
29239;BME280;16267;48.194;11.546;2023-04-04T09:38:29;96578.19;;;4.90;39.13
29239;BME280;16267;48.194;11.546;2023-04-04T09:40:56;96586.44;;;4.85;38.25
29239;BME280;16267;48.194;11.546;2023-04-04T09:43:25;96589.03;;;4.81;39.39
29239;BME280;16267;48.194;11.546;2023-04-04T09:45:55;96579.28;;;4.69;39.33
29239;BME280;16267;48.194;11.546;2023-04-04T09:48:30;96584.47;;;4.82;38.83
29239;BME280;16267;48.194;11.546;2023-04-04T09:50:57;96582.47;;;4.95;39.54
29239;BME280;16267;48.194;11.546;2023-04-04T09:53:24;96584.09;;;4.99;38.67
29239;BME280;16267;48.194;11.546;2023-04-04T09:55:55;96588.56;;;5.14;38.41
29239;BME280;16267;48.194;11.546;2023-04-04T09:58:26;96582.81;;;5.32;38.35
29239;BME280;16267;48.194;11.546;2023-04-04T10:01:01;96579.00;;;5.29;37.78
29239;BME280;16267;48.194;11.546;2023-04-04T10:03:28;96579.41;;;5.12;37.05
29239;BME280;16267;48.194;11.546;2023-04-04T10:08:27;96585.91;;;5.34;38.78
29239;BME280;16267;48.194;11.546;2023-04-04T10:11:03;96590.19;;;5.39;38.31
29239;BME280;16267;48.194;11.546;2023-04-04T10:13:34;96584.50;;;5.40;38.19
29239;BME280;16267;48.194;11.546;2023-04-04T10:16:03;96593.13;;;5.53;38.53
29239;BME280;16267;48.194;11.546;2023-04-04T10:18:32;96588.50;;;5.69;39.02
29239;BME280;16267;48.194;11.546;2023-04-04T10:21:05;96590.88;;;5.74;38.44
29239;BME280;16267;48.194;11.546;2023-04-04T10:23:31;96584.63;;;5.67;38.50
29239;BME280;16267;48.194;11.546;2023-04-04T10:25:59;96581.75;;;5.75;37.63
29239;BME280;16267;48.194;11.546;2023-04-04T10:28:26;96579.31;;;5.90;38.27
29239;BME280;16267;48.194;11.546;2023-04-04T10:31:18;96585.06;;;5.92;38.51
29239;BME280;16267;48.194;11.546;2023-04-04T10:36:54;96581.50;;;6.03;37.39
29239;BME280;16267;48.194;11.546;2023-04-04T10:39:31;96584.81;;;6.20;36.99
29239;BME280;16267;48.194;11.546;2023-04-04T10:41:58;96582.69;;;6.29;38.27
29239;BME280;16267;48.194;11.546;2023-04-04T10:44:37;96570.75;;;6.46;37.76
29239;BME280;16267;48.194;11.546;2023-04-04T10:47:19;96581.22;;;6.58;37.16
29239;BME280;16267;48.194;11.546;2023-04-04T10:49:51;96575.34;;;6.76;37.39
29239;BME280;16267;48.194;11.546;2023-04-04T10:52:23;96570.69;;;6.96;38.05
29239;BME280;16267;48.194;11.546;2023-04-04T10:54:56;96568.41;;;6.98;37.59
29239;BME280;16267;48.194;11.546;2023-04-04T10:57:23;96571.63;;;7.10;37.62
29239;BME280;16267;48.194;11.546;2023-04-04T11:00:11;96573.56;;;7.13;37.18
29239;BME280;16267;48.194;11.546;2023-04-04T11:05:37;96566.25;;;7.07;36.31
29239;BME280;16267;48.194;11.546;2023-04-04T11:08:15;96562.78;;;7.06;36.56
29239;BME280;16267;48.194;11.546;2023-04-04T11:10:43;96551.06;;;7.14;36.37
29239;BME280;16267;48.194;11.546;2023-04-04T11:13:27;96557.75;;;7.31;37.32
29239;BME280;16267;48.194;11.546;2023-04-04T11:16:11;96557.06;;;7.34;36.40
29239;BME280;16267;48.194;11.546;2023-04-04T11:28:51;96533.09;;;7.82;36.09
29239;BME280;16267;48.194;11.546;2023-04-04T11:34:08;96537.81;;;8.00;34.81
29239;BME280;16267;48.194;11.546;2023-04-04T11:44:25;96529.25;;;7.80;34.19
29239;BME280;16267;48.194;11.546;2023-04-04T11:47:18;96531.56;;;7.81;34.58
29239;BME280;16267;48.194;11.546;2023-04-04T11:49:45;96525.13;;;7.90;35.03
29239;BME280;16267;48.194;11.546;2023-04-04T11:52:13;96530.22;;;8.02;35.90
29239;BME280;16267;48.194;11.546;2023-04-04T11:54:44;96526.41;;;8.03;35.98
29239;BME280;16267;48.194;11.546;2023-04-04T11:57:14;96521.03;;;7.99;35.94
29239;BME280;16267;48.194;11.546;2023-04-04T11:59:46;96540.09;;;7.98;36.47
29239;BME280;16267;48.194;11.546;2023-04-04T12:02:15;96529.38;;;7.94;35.30
29239;BME280;16267;48.194;11.546;2023-04-04T12:04:45;96534.03;;;8.01;35.74
29239;BME280;16267;48.194;11.546;2023-04-04T12:07:12;96527.53;;;7.98;35.70
29239;BME280;16267;48.194;11.546;2023-04-04T12:09:40;96532.78;;;7.88;34.00
29239;BME280;16267;48.194;11.546;2023-04-04T12:12:11;96525.44;;;7.81;33.56
29239;BME280;16267;48.194;11.546;2023-04-04T12:14:39;96528.84;;;7.78;33.73
29239;BME280;16267;48.194;11.546;2023-04-04T12:17:04;96525.81;;;7.79;34.08
29239;BME280;16267;48.194;11.546;2023-04-04T12:19:36;96516.31;;;7.86;35.49
29239;BME280;16267;48.194;11.546;2023-04-04T12:22:06;96524.22;;;7.71;34.91
29239;BME280;16267;48.194;11.546;2023-04-04T12:24:36;96525.44;;;7.81;35.46
29239;BME280;16267;48.194;11.546;2023-04-04T12:27:02;96519.00;;;7.86;35.26
29239;BME280;16267;48.194;11.546;2023-04-04T12:29:31;96505.31;;;7.91;35.24
29239;BME280;16267;48.194;11.546;2023-04-04T12:32:03;96520.50;;;7.83;35.52
29239;BME280;16267;48.194;11.546;2023-04-04T12:34:32;96520.38;;;7.69;34.33
29239;BME280;16267;48.194;11.546;2023-04-04T12:37:00;96519.06;;;7.52;34.60
29239;BME280;16267;48.194;11.546;2023-04-04T12:39:28;96517.56;;;7.54;34.29
29239;BME280;16267;48.194;11.546;2023-04-04T12:41:58;96525.00;;;7.34;33.87
29239;BME280;16267;48.194;11.546;2023-04-04T12:44:37;96518.53;;;7.39;34.60
29239;BME280;16267;48.194;11.546;2023-04-04T12:47:09;96514.09;;;7.50;35.25
29239;BME280;16267;48.194;11.546;2023-04-04T12:49:41;96513.22;;;7.39;33.76
29239;BME280;16267;48.194;11.546;2023-04-04T12:52:17;96516.28;;;7.41;33.58
29239;BME280;16267;48.194;11.546;2023-04-04T12:54:49;96510.56;;;7.43;33.70
29239;BME280;16267;48.194;11.546;2023-04-04T12:57:20;96514.91;;;7.54;34.46
29239;BME280;16267;48.194;11.546;2023-04-04T12:59:46;96513.31;;;7.50;34.10
29239;BME280;16267;48.194;11.546;2023-04-04T13:02:18;96505.31;;;7.50;34.98
29239;BME280;16267;48.194;11.546;2023-04-04T13:04:47;96508.78;;;7.54;34.93
29239;BME280;16267;48.194;11.546;2023-04-04T13:07:27;96510.66;;;7.50;35.07
29239;BME280;16267;48.194;11.546;2023-04-04T13:09:59;96515.03;;;7.31;34.65
29239;BME280;16267;48.194;11.546;2023-04-04T13:12:25;96507.72;;;7.25;34.15
29239;BME280;16267;48.194;11.546;2023-04-04T13:15:04;96513.94;;;7.36;35.57
29239;BME280;16267;48.194;11.546;2023-04-04T13:17:47;96512.47;;;7.42;35.34
29239;BME280;16267;48.194;11.546;2023-04-04T13:20:16;96513.47;;;7.27;35.00
29239;BME280;16267;48.194;11.546;2023-04-04T13:22:43;96506.97;;;7.24;35.39
29239;BME280;16267;48.194;11.546;2023-04-04T13:25:10;96510.69;;;7.16;35.66
29239;BME280;16267;48.194;11.546;2023-04-04T13:27:36;96503.69;;;7.04;35.71
29239;BME280;16267;48.194;11.546;2023-04-04T13:30:06;96508.59;;;6.99;35.21
29239;BME280;16267;48.194;11.546;2023-04-04T13:32:33;96494.81;;;6.97;35.61
29239;BME280;16267;48.194;11.546;2023-04-04T13:34:58;96494.13;;;7.03;35.32